Time;durP1;ratioP1;P1;durP2;ratioP2;P2;SDS_P1;SDS_P2;PMS_P1;PMS_P2;Temp;Humidity;BMP_temperature;BMP_pressure;BME280_temperature;BME280_humidity;BME280_pressure;Samples;Min_cycle;Max_cycle;Signal;HPM_P1;HPM_P2
2021/11/06 00:01:50;;;;;;;6.30;5.70;;;20.30;73.40;;;24.38;37.83;95669.09;6071703;19;20006;-66
2021/11/06 00:03:50;;;;;;;6.57;5.82;;;20.30;73.40;;;24.41;38.24;95661.41;6078295;19;20450;-66
2021/11/06 00:05:52;;;;;;;5.88;5.38;;;20.30;73.40;;;24.41;37.92;95656.75;6059901;19;21582;-67
2021/11/06 00:07:52;;;;;;;6.65;6.05;;;20.30;73.40;;;24.41;38.33;95659.47;6057124;19;20014;-67
2021/11/06 00:09:53;;;;;;;6.53;5.45;;;20.30;73.40;;;24.44;38.32;95663.50;6072705;19;20022;-66
2021/11/06 00:11:54;;;;;;;6.35;5.75;;;20.30;73.40;;;24.45;38.15;95660.44;6064439;19;20067;-68
2021/11/06 00:13:55;;;;;;;9.57;8.43;;;20.30;73.30;;;24.45;38.00;95655.00;6065341;19;20007;-68
2021/11/06 00:15:56;;;;;;;27.40;19.83;;;20.30;73.50;;;24.45;38.75;95660.44;6073709;19;20030;-69
2021/11/06 00:17:57;;;;;;;19.63;15.27;;;20.40;76.40;;;24.48;38.44;95656.28;6075878;19;20018;-69
2021/11/06 00:19:58;;;;;;;16.98;12.35;;;20.40;76.60;;;24.48;38.46;95659.81;6049578;19;20605;-69
2021/11/06 00:21:59;;;;;;;16.02;12.73;;;20.40;76.10;;;24.49;38.81;95655.94;6066986;19;20510;-68
2021/11/06 00:23:59;;;;;;;17.75;12.00;;;20.40;75.80;;;24.51;38.65;95658.34;6069664;19;20684;-68
2021/11/06 00:26:00;;;;;;;15.07;11.95;;;20.40;75.60;;;24.52;38.73;95659.94;6073484;19;20184;-68
2021/11/06 00:28:01;;;;;;;16.50;12.25;;;20.40;75.40;;;24.53;38.74;95658.81;6066547;19;20031;-68
2021/11/06 00:30:06;;;;;;;15.50;11.88;;;20.40;75.40;;;24.55;38.51;95654.66;6039062;19;20013;-68
2021/11/06 00:32:08;;;;;;;16.30;12.43;;;20.40;75.30;;;24.56;38.50;95653.53;6069144;19;20007;-65
2021/11/06 00:34:09;;;;;;;13.93;11.70;;;20.40;76.00;;;24.57;38.28;95663.28;6070250;19;21076;-65
2021/11/06 00:36:09;;;;;;;14.38;10.50;;;20.50;75.40;;;24.58;38.28;95664.91;6061539;19;20042;-66
2021/11/06 00:38:11;;;;;;;13.48;11.88;;;20.40;75.10;;;24.60;38.63;95661.84;6064483;19;20034;-66
2021/11/06 00:40:13;;;;;;;13.07;10.75;;;20.40;75.30;;;24.62;38.39;95668.56;6064069;19;20432;-66
2021/11/06 00:42:14;;;;;;;14.90;10.88;;;20.40;75.00;;;24.63;38.54;95663.91;6067609;19;20035;-66
2021/11/06 00:44:15;;;;;;;13.50;10.32;;;20.40;74.90;;;24.64;38.05;95663.59;6078534;19;20362;-66
2021/11/06 00:46:15;;;;;;;12.00;9.98;;;20.50;75.10;;;24.65;38.53;95658.94;6056375;19;20033;-68
2021/11/06 00:48:16;;;;;;;12.40;9.48;;;20.50;75.00;;;24.65;38.25;95659.75;6063059;19;20014;-65
2021/11/06 00:50:17;;;;;;;12.20;10.05;;;20.50;74.90;;;24.68;38.28;95658.28;6050623;19;20027;-66
2021/11/06 00:52:18;;;;;;;12.68;10.13;;;20.50;74.90;;;24.67;38.52;95660.22;6065933;19;20033;-65
2021/11/06 00:54:19;;;;;;;10.98;9.27;;;20.50;74.80;;;24.70;38.39;95666.94;6063610;19;20042;-66
2021/11/06 00:56:20;;;;;;;12.30;9.30;;;20.50;74.80;;;24.69;38.43;95660.69;6072606;19;20594;-66
2021/11/06 00:58:21;;;;;;;9.57;8.57;;;20.50;74.70;;;24.69;38.23;95663.41;6077431;19;20011;-66
2021/11/06 01:00:22;;;;;;;10.70;9.52;;;20.50;74.70;;;24.72;38.14;95669.34;6058950;19;20038;-66
2021/11/06 01:02:23;;;;;;;10.45;9.35;;;20.50;74.60;;;24.73;38.31;95660.81;6066324;19;20015;-67
2021/11/06 01:04:23;;;;;;;9.40;8.48;;;20.50;74.50;;;24.74;38.18;95667.09;6071623;19;20023;-66
2021/11/06 01:06:24;;;;;;;9.75;8.75;;;20.50;74.40;;;24.74;37.83;95667.09;6077823;19;20124;-66
2021/11/06 01:08:25;;;;;;;9.52;8.43;;;20.50;74.40;;;24.74;38.24;95665.16;6064747;19;20021;-67
2021/11/06 01:10:26;;;;;;;10.35;9.02;;;20.60;74.40;;;24.74;37.90;95670.59;6064100;19;20086;-67
2021/11/06 01:12:27;;;;;;;10.30;8.93;;;20.50;74.30;;;24.76;38.06;95671.09;6068933;19;20376;-66
2021/11/06 01:14:28;;;;;;;10.73;7.95;;;20.50;74.30;;;24.77;37.99;95677.34;6070081;19;20010;-65
2021/11/06 01:16:29;;;;;;;8.90;7.97;;;20.60;74.30;;;24.78;37.79;95676.22;6079507;19;20014;-65
2021/11/06 01:18:30;;;;;;;8.75;7.70;;;20.60;74.30;;;24.77;37.86;95669.94;6068885;19;20018;-65
2021/11/06 01:20:31;;;;;;;8.18;7.32;;;20.60;74.30;;;24.80;38.29;95679.41;6067186;19;20637;-66
2021/11/06 01:22:32;;;;;;;8.40;7.55;;;20.60;74.20;;;24.80;38.06;95677.47;6071654;19;20361;-66
2021/11/06 01:24:33;;;;;;;9.18;7.35;;;20.60;74.20;;;24.80;38.08;95685.66;6058474;19;20014;-65
2021/11/06 01:26:34;;;;;;;7.30;6.68;;;20.60;74.10;;;24.82;37.92;95685.38;6066256;19;20049;-65
2021/11/06 01:28:35;;;;;;;7.88;7.07;;;20.60;74.20;;;24.82;37.65;95683.44;6059428;19;20028;-65
2021/11/06 01:30:36;;;;;;;7.75;6.57;;;20.60;74.10;;;24.83;38.26;95678.78;6069311;19;20335;-65
2021/11/06 01:32:38;;;;;;;7.93;7.18;;;20.60;74.00;;;24.83;37.72;95682.31;6077145;19;21343;-65
2021/11/06 01:34:39;;;;;;;8.32;7.03;;;20.60;74.00;;;24.83;37.71;95676.84;6079199;19;20010;-65
2021/11/06 01:36:40;;;;;;;6.65;6.05;;;20.60;73.90;;;24.84;37.63;95666.75;6073129;19;20502;-66
2021/11/06 01:38:43;;;;;;;7.57;6.80;;;20.60;74.60;;;24.84;38.15;95675.72;6063470;19;20010;-65
2021/11/06 01:40:44;;;;;;;7.32;6.63;;;20.60;73.80;;;24.86;38.12;95676.19;6058326;19;20018;-65
2021/11/06 01:42:45;;;;;;;7.43;6.72;;;20.70;73.90;;;24.87;37.69;95677.00;6047947;19;20475;-65
2021/11/06 01:44:46;;;;;;;6.75;6.18;;;20.70;73.90;;;24.87;37.97;95674.28;6062632;19;20483;-65
2021/11/06 01:46:47;;;;;;;6.75;6.15;;;20.70;73.80;;;24.88;37.99;95670.41;6070118;19;20066;-65
2021/11/06 01:48:48;;;;;;;6.13;5.53;;;20.70;73.80;;;24.89;37.78;95670.09;6066664;19;20065;-65
2021/11/06 01:50:49;;;;;;;6.25;5.65;;;20.70;73.70;;;24.90;37.76;95670.88;6071256;19;20399;-66
2021/11/06 01:52:50;;;;;;;6.30;5.70;;;20.70;73.80;;;24.89;38.00;95664.63;6074302;19;20052;-65
2021/11/06 01:54:51;;;;;;;6.22;5.63;;;20.70;73.70;;;24.90;37.99;95671.69;6058728;19;20014;-64
2021/11/06 01:56:54;;;;;;;6.18;5.65;;;20.70;73.60;;;24.90;37.81;95666.22;6060050;19;20380;-65
2021/11/06 01:58:55;;;;;;;7.15;6.55;;;20.70;73.60;;;24.91;37.89;95662.38;6070661;19;20018;-65
2021/11/06 02:00:57;;;;;;;5.95;5.35;;;20.70;73.50;;;24.93;37.94;95664.78;6060282;19;20034;-65
2021/11/06 02:02:58;;;;;;;6.13;5.07;;;20.70;73.60;;;24.92;37.83;95669.44;6053919;19;20416;-65
2021/11/06 02:04:58;;;;;;;5.53;5.03;;;20.70;73.50;;;24.92;37.79;95661.25;6071948;19;20692;-65
2021/11/06 02:06:59;;;;;;;5.25;4.80;;;20.70;73.40;;;24.93;37.79;95657.41;6077010;19;20545;-66
2021/11/06 02:09:00;;;;;;;5.70;5.20;;;20.70;73.40;;;24.94;37.74;95660.91;6073878;19;20009;-66
2021/11/06 02:11:02;;;;;;;5.03;4.63;;;20.70;74.00;;;24.93;37.68;95662.03;6070243;19;20334;-65
2021/11/06 02:13:03;;;;;;;5.35;4.88;;;20.70;73.30;;;24.94;37.86;95664.44;6063928;19;20368;-65
2021/11/06 02:15:07;;;;;;;5.00;4.60;;;20.70;73.30;;;24.95;38.02;95659.78;6075246;19;20019;-65
2021/11/06 02:17:08;;;;;;;5.30;4.80;;;20.70;73.30;;;24.95;37.64;95657.06;6072617;19;20017;-65
2021/11/06 02:19:08;;;;;;;4.95;4.55;;;20.70;73.30;;;24.96;37.69;95658.66;6064856;19;20834;-65
2021/11/06 02:21:10;;;;;;;4.85;4.45;;;20.70;73.20;;;24.97;37.70;95665.72;6070075;19;20006;-65
2021/11/06 02:23:11;;;;;;;5.45;5.03;;;20.70;73.20;;;24.96;37.80;95659.47;6059715;19;20054;-65
2021/11/06 02:25:13;;;;;;;4.55;4.25;;;20.70;73.10;;;24.98;37.63;95661.91;6071777;19;20006;-67
2021/11/06 02:27:14;;;;;;;4.57;4.18;;;20.70;73.10;;;24.99;37.63;95666.22;6078967;19;20024;-66
2021/11/06 02:29:16;;;;;;;5.22;4.80;;;20.80;73.30;;;24.99;37.40;95658.03;6059092;19;20499;-64
2021/11/06 02:31:17;;;;;;;4.95;4.55;;;20.80;73.20;;;25.01;37.27;95660.44;6068525;19;20003;-65
2021/11/06 02:33:18;;;;;;;4.75;4.35;;;20.80;73.10;;;25.01;37.56;95663.97;6075032;19;20633;-64
2021/11/06 02:35:20;;;;;;;3.95;3.65;;;20.80;73.10;;;25.03;37.91;95666.34;6078485;19;20010;-64
2021/11/06 02:37:21;;;;;;;4.70;4.30;;;20.80;73.10;;;25.03;37.42;95669.88;6074120;19;20015;-64
2021/11/06 02:39:24;;;;;;;5.03;4.53;;;20.80;73.00;;;25.03;37.55;95664.44;6080640;19;21566;-64
2021/11/06 02:41:26;;;;;;;4.40;4.00;;;20.80;73.00;;;25.03;37.45;95658.97;6072547;19;22231;-64
2021/11/06 02:43:27;;;;;;;4.03;3.72;;;20.80;73.00;;;25.04;37.28;95660.56;6074109;19;20019;-64
2021/11/06 02:45:28;;;;;;;4.35;4.05;;;20.80;73.00;;;25.05;37.57;95662.19;6057968;19;20007;-65
2021/11/06 02:47:30;;;;;;;4.32;4.03;;;20.80;72.90;;;25.06;37.62;95652.06;6079022;19;20021;-64
2021/11/06 02:49:32;;;;;;;4.18;3.88;;;20.80;73.00;;;25.06;37.80;95654.78;6077152;19;20019;-65
2021/11/06 02:51:33;;;;;;;3.50;3.17;;;20.80;72.90;;;25.06;37.46;95661.03;6075495;19;20441;-64
2021/11/06 02:53:34;;;;;;;3.97;3.67;;;20.80;72.90;;;25.07;37.57;95657.19;6072476;19;20027;-64
2021/11/06 02:55:35;;;;;;;3.33;3.13;;;20.80;72.80;;;25.07;37.73;95653.66;6077585;19;20018;-64
2021/11/06 02:57:36;;;;;;;3.28;3.08;;;20.80;72.80;;;25.09;37.45;95659.59;6070215;19;20075;-64
2021/11/06 02:59:37;;;;;;;3.70;3.42;;;20.80;72.80;;;25.08;37.24;95639.69;6070567;19;20382;-65
2021/11/06 03:01:38;;;;;;;3.67;3.38;;;20.90;72.90;;;25.08;37.23;95650.59;6068131;19;20074;-65
2021/11/06 03:03:39;;;;;;;3.30;3.00;;;20.90;72.80;;;25.10;37.27;95645.63;6081608;19;20384;-65
2021/11/06 03:05:39;;;;;;;3.45;3.15;;;20.90;72.80;;;25.09;37.63;95652.19;6086337;19;20467;-65
2021/11/06 03:07:42;;;;;;;3.90;3.60;;;20.90;72.70;;;25.09;37.24;95652.19;6079952;19;20070;-65
2021/11/06 03:09:42;;;;;;;3.93;3.63;;;20.90;72.60;;;25.09;37.53;95651.41;6076684;19;20019;-65
2021/11/06 03:11:44;;;;;;;3.50;3.20;;;20.90;72.60;;;25.10;37.07;95663.91;6060511;19;20548;-65
2021/11/06 03:13:45;;;;;;;3.15;2.95;;;20.90;72.50;;;25.11;37.52;95668.25;6057815;19;20034;-65
2021/11/06 03:15:46;;;;;;;3.15;2.92;;;20.90;72.60;;;25.10;37.67;95661.97;6074246;19;20019;-65
2021/11/06 03:17:47;;;;;;;3.42;3.13;;;20.90;73.20;;;25.12;37.35;95667.09;6064626;19;21781;-65
2021/11/06 03:19:48;;;;;;;3.17;2.88;;;20.90;72.50;;;25.12;37.56;95667.91;6071983;19;20446;-65
2021/11/06 03:21:49;;;;;;;3.13;2.83;;;20.90;72.40;;;25.11;37.09;95655.41;6081362;19;20074;-65
2021/11/06 03:23:50;;;;;;;3.40;3.10;;;20.90;72.40;;;25.12;37.39;95665.19;6080978;19;20007;-65
2021/11/06 03:25:51;;;;;;;3.25;2.95;;;20.90;72.30;;;25.12;37.33;95664.38;6082309;19;20094;-65
2021/11/06 03:27:52;;;;;;;3.30;3.00;;;20.90;72.30;;;25.12;37.63;95661.66;6070469;19;20395;-65
2021/11/06 03:29:53;;;;;;;4.32;2.67;;;20.90;72.30;;;25.12;37.53;95662.44;6074206;19;20070;-65
2021/11/06 03:31:53;;;;;;;3.13;2.88;;;20.90;72.30;;;25.12;37.04;95662.44;6072129;19;20896;-65
2021/11/06 03:33:54;;;;;;;2.72;2.53;;;20.90;72.20;;;25.14;37.49;95675.75;6077764;19;20029;-65
2021/11/06 03:35:55;;;;;;;3.10;2.80;;;20.90;72.20;;;25.13;36.96;95658.59;6056779;19;20002;-65
2021/11/06 03:37:58;;;;;;;2.65;2.45;;;20.90;72.20;;;25.13;37.48;95664.06;6072020;19;20084;-65
2021/11/06 03:39:58;;;;;;;2.65;2.40;;;20.90;72.10;;;25.14;37.27;95668.38;6071922;19;20010;-65
2021/11/06 03:41:59;;;;;;;2.95;2.75;;;20.90;72.00;;;25.16;37.49;95657.94;6074623;19;20021;-64
2021/11/06 03:44:00;;;;;;;2.90;2.70;;;20.90;72.00;;;25.16;36.95;95662.59;6074876;19;20475;-65
2021/11/06 03:46:02;;;;;;;2.40;2.20;;;20.90;72.00;;;25.15;37.47;95656.34;6072261;19;20324;-65
2021/11/06 03:48:05;;;;;;;2.50;2.30;;;20.90;71.90;;;25.16;37.22;95648.94;6082699;19;20400;-65
2021/11/06 03:50:09;;;;;;;3.08;2.78;;;20.90;71.90;;;25.16;37.39;95657.94;6075550;19;20049;-65
2021/11/06 03:52:10;;;;;;;2.92;2.72;;;21.00;72.00;;;25.16;37.22;95655.22;6073772;19;20007;-65
2021/11/06 03:54:11;;;;;;;2.63;2.42;;;20.90;71.90;;;25.17;37.44;95665.00;6067523;19;20482;-65
2021/11/06 03:56:12;;;;;;;2.38;2.17;;;21.00;72.00;;;25.17;37.42;95659.53;6061417;19;20073;-65
2021/11/06 03:58:13;;;;;;;2.28;2.08;;;20.90;71.80;;;25.18;36.96;95652.94;6075508;19;20013;-65
2021/11/06 04:00:16;;;;;;;2.28;2.08;;;21.00;71.80;;;25.18;36.85;95661.13;6077094;19;20560;-65
2021/11/06 04:02:17;;;;;;;2.60;2.40;;;21.00;71.70;;;25.18;37.17;95658.41;6078075;19;20014;-65
2021/11/06 04:04:18;;;;;;;2.67;2.47;;;21.00;71.70;;;25.19;37.12;95662.72;6073848;19;20961;-65
2021/11/06 04:06:19;;;;;;;2.72;2.53;;;21.00;71.60;;;25.19;37.07;95662.72;6079410;19;20029;-65
2021/11/06 04:08:20;;;;;;;2.22;2.10;;;21.00;71.60;;;25.18;37.06;95655.69;6078925;19;20010;-65
2021/11/06 04:10:24;;;;;;;2.55;2.35;;;21.00;71.50;;;25.19;37.00;95664.66;6072763;19;20483;-65
2021/11/06 04:12:24;;;;;;;2.55;2.35;;;21.00;71.50;;;25.18;37.31;95663.06;6056180;19;20002;-65
2021/11/06 04:14:25;;;;;;;2.58;2.00;;;21.00;71.40;;;25.16;37.40;95668.06;6062810;19;20028;-65
2021/11/06 04:16:26;;;;;;;2.53;2.08;;;20.90;71.30;;;25.16;37.27;95671.56;6063852;19;20016;-66
2021/11/06 04:18:27;;;;;;;2.22;2.03;;;20.90;71.30;;;25.15;37.09;95664.53;6076726;19;20014;-65
2021/11/06 04:20:28;;;;;;;2.00;1.90;;;20.90;71.20;;;25.15;36.98;95671.91;6060069;19;20007;-65
2021/11/06 04:22:29;;;;;;;1.75;1.65;;;20.90;71.20;;;25.12;36.78;95667.91;6069646;19;20025;-65
2021/11/06 04:24:30;;;;;;;2.33;2.13;;;20.90;71.20;;;25.12;37.22;95672.56;6062044;19;20011;-65
2021/11/06 04:26:30;;;;;;;2.33;2.13;;;20.90;71.10;;;25.11;37.30;95668.25;6062128;19;20483;-65
2021/11/06 04:28:31;;;;;;;2.30;2.10;;;20.90;71.10;;;25.10;37.34;95664.72;6075438;19;20031;-65
2021/11/06 04:30:33;;;;;;;2.35;2.15;;;20.90;71.10;;;25.10;37.00;95666.63;6073703;19;20027;-64
2021/11/06 04:32:33;;;;;;;2.30;2.10;;;20.90;71.10;;;25.08;37.07;95664.25;6065078;19;20029;-64
2021/11/06 04:34:34;;;;;;;1.90;1.70;;;20.90;71.10;;;25.07;37.07;95659.91;6057610;19;20014;-64
2021/11/06 04:36:38;;;;;;;2.72;1.70;;;20.90;70.90;;;25.08;37.23;95658.78;6050847;19;20558;-65
2021/11/06 04:38:39;;;;;;;1.85;1.75;;;20.90;71.00;;;25.08;36.71;95663.44;6071019;19;20039;-66
2021/11/06 04:40:41;;;;;;;2.00;1.90;;;20.90;70.90;;;25.07;37.20;95667.31;6061670;19;20011;-66
2021/11/06 04:42:42;;;;;;;2.05;1.95;;;20.90;70.90;;;25.07;36.83;95665.38;6060008;19;20062;-66
2021/11/06 04:44:43;;;;;;;1.70;1.60;;;20.90;70.90;;;25.07;36.94;95662.66;6073438;19;20010;-66
2021/11/06 04:46:44;;;;;;;1.50;1.40;;;20.90;70.90;;;25.07;36.98;95651.72;6056574;19;20357;-66
2021/11/06 04:48:45;;;;;;;1.70;1.60;;;20.90;70.80;;;25.09;37.01;95662.31;6072306;19;20014;-66
2021/11/06 04:50:46;;;;;;;1.75;1.65;;;20.90;70.90;;;25.08;36.67;95664.25;6068602;19;20019;-65
2021/11/06 04:52:46;;;;;;;1.42;1.33;;;20.90;70.80;;;25.10;36.78;95666.63;6054343;19;21009;-65
2021/11/06 04:54:47;;;;;;;1.90;1.80;;;20.90;70.80;;;25.10;37.14;95667.44;6073930;19;20011;-65
2021/11/06 04:56:50;;;;;;;1.90;1.60;;;20.90;70.80;;;25.11;36.76;95666.31;6058719;19;20010;-66
2021/11/06 04:58:51;;;;;;;1.88;1.52;;;20.90;70.80;;;25.10;36.98;95667.44;6061116;19;20018;-66
2021/11/06 05:00:51;;;;;;;1.58;1.40;;;20.90;70.70;;;25.11;36.72;95662.78;6057232;19;20675;-66
2021/11/06 05:02:53;;;;;;;1.95;1.58;;;20.90;70.70;;;25.11;37.13;95655.41;6067570;19;20031;-66
2021/11/06 05:04:54;;;;;;;1.60;1.35;;;20.90;70.60;;;25.12;36.90;95662.44;6072788;19;20010;-66
2021/11/06 05:06:55;;;;;;;1.67;1.52;;;20.90;70.70;;;25.13;36.65;95657.78;6064525;19;20031;-66
2021/11/06 05:08:55;;;;;;;1.45;1.35;;;21.00;70.70;;;25.13;37.03;95664.06;6062848;19;20737;-66
2021/11/06 05:10:57;;;;;;;1.60;1.50;;;20.90;70.60;;;25.14;37.08;95668.38;6053146;19;20479;-66
2021/11/06 05:12:57;;;;;;;1.45;1.35;;;20.90;70.60;;;25.15;36.75;95661.00;6075368;19;20542;-66
2021/11/06 05:14:58;;;;;;;1.55;1.45;;;20.90;70.60;;;25.15;36.61;95669.97;6062545;19;20013;-66
2021/11/06 05:16:59;;;;;;;1.63;1.40;;;20.90;70.60;;;25.16;36.63;95663.41;6068730;19;20002;-66
2021/11/06 05:19:00;;;;;;;1.40;1.30;;;20.90;70.50;;;25.17;36.63;95659.53;6067650;19;20335;-66
2021/11/06 05:21:01;;;;;;;1.55;1.20;;;21.00;70.60;;;25.18;36.81;95660.34;6069217;19;20014;-66
2021/11/06 05:23:01;;;;;;;1.40;1.30;;;21.00;70.60;;;25.19;37.04;95664.66;6051789;19;20436;-66
2021/11/06 05:25:04;;;;;;;1.40;1.30;;;21.00;70.50;;;25.21;36.55;95657.75;6069564;19;21332;-65
2021/11/06 05:27:06;;;;;;;1.13;1.10;;;21.00;70.50;;;25.21;36.80;95660.47;6058634;19;20435;-66
2021/11/06 05:29:09;;;;;;;1.87;1.40;;;21.00;70.60;;;25.22;36.65;95653.91;6060950;19;20002;-67
2021/11/06 05:31:10;;;;;;;;;;;21.00;70.50;;;25.22;36.60;95656.66;6055960;19;20301;-66
2021/11/06 05:33:13;;;;;;;1.42;1.25;;;21.00;70.40;;;25.23;36.79;95665.63;6072866;19;20274;-66
2021/11/06 05:35:15;;;;;;;1.13;1.02;;;21.00;70.50;;;25.23;36.68;95654.72;6059816;19;20155;-66
2021/11/06 05:37:16;;;;;;;1.33;1.23;;;21.00;70.40;;;25.23;36.55;95660.97;6070380;19;20018;-66
2021/11/06 05:39:16;;;;;;;1.38;1.27;;;21.00;70.30;;;25.24;36.78;95662.56;6075521;19;20041;-66
2021/11/06 05:41:17;;;;;;;1.85;1.23;;;21.00;70.40;;;25.24;36.83;95668.03;6056791;19;20006;-66
2021/11/06 05:43:18;;;;;;;1.30;1.20;;;21.00;70.40;;;25.26;37.05;95671.22;6060674;19;20595;-66
2021/11/06 05:45:19;;;;;;;1.27;1.05;;;21.00;70.30;;;25.28;36.64;95665.44;6052147;19;21109;-66
2021/11/06 05:47:20;;;;;;;1.15;1.05;;;21.00;70.20;;;25.28;36.49;95668.97;6053309;19;20015;-66
2021/11/06 05:49:21;;;;;;;1.08;0.98;;;21.00;70.10;;;25.28;36.49;95668.97;6067799;19;20007;-66
2021/11/06 05:51:22;;;;;;;1.17;1.05;;;21.00;70.10;;;25.29;36.39;95667.84;6078823;19;20007;-66
2021/11/06 05:53:23;;;;;;;1.15;1.05;;;21.00;70.10;;;25.30;36.90;95663.19;6076372;19;20037;-66
2021/11/06 05:55:24;;;;;;;1.10;1.05;;;21.00;70.10;;;25.30;36.88;95663.97;6069647;19;20368;-66
2021/11/06 05:57:25;;;;;;;1.10;1.00;;;21.00;70.10;;;25.30;36.69;95668.63;6073290;19;20021;-66
2021/11/06 05:59:25;;;;;;;0.90;0.90;;;21.10;70.10;;;25.32;36.39;95665.56;6053255;19;21812;-66
2021/11/06 06:01:26;;;;;;;1.17;1.08;;;21.10;70.10;;;25.33;36.70;95675.38;6050026;19;20126;-65
2021/11/06 06:03:27;;;;;;;0.90;0.90;;;21.10;70.10;;;25.34;36.29;95679.69;6035591;19;20007;-66
2021/11/06 06:05:28;;;;;;;0.93;0.90;;;21.10;70.00;;;25.34;36.56;95671.50;6052154;19;20411;-66
2021/11/06 06:07:29;;;;;;;1.02;0.98;;;21.10;69.90;;;25.34;36.84;95672.31;6065354;19;20041;-66
2021/11/06 06:09:30;;;;;;;0.95;0.80;;;21.10;69.90;;;25.35;36.66;95675.84;6056508;19;20084;-66
2021/11/06 06:11:30;;;;;;;1.10;1.00;;;21.10;69.90;;;25.35;36.28;95673.91;6063339;19;20015;-66
2021/11/06 06:13:31;;;;;;;1.00;0.90;;;21.10;69.80;;;25.36;36.68;95685.63;6055467;19;20033;-66
2021/11/06 06:15:32;;;;;;;1.15;1.08;;;21.10;69.90;;;25.37;36.24;95684.50;6061834;19;20340;-66
2021/11/06 06:17:33;;;;;;;1.30;1.20;;;21.10;69.80;;;25.38;36.56;95697.00;6058237;19;20011;-69
2021/11/06 06:19:34;;;;;;;1.20;1.10;;;21.10;69.80;;;25.37;36.44;95690.75;6061104;19;20015;-66
2021/11/06 06:21:35;;;;;;;1.20;1.10;;;21.10;69.80;;;25.38;36.21;95697.00;6070698;19;20010;-66
2021/11/06 06:23:36;;;;;;;2.38;0.90;;;21.10;69.70;;;25.38;36.25;95706.00;6047143;19;20480;-66
2021/11/06 06:25:37;;;;;;;1.08;1.00;;;21.10;69.70;;;25.40;36.33;95705.66;6033818;19;20006;-66
2021/11/06 06:27:39;;;;;;;2.50;1.10;;;21.10;69.60;;;25.40;36.42;95706.47;6042651;19;20022;-66
2021/11/06 06:29:40;;;;;;;1.00;1.00;;;21.10;69.50;;;25.41;36.42;95710.00;6036206;19;20626;-67
2021/11/06 06:31:43;;;;;;;1.02;1.00;;;21.10;69.50;;;25.41;36.42;95707.25;6045257;19;20015;-67
2021/11/06 06:33:44;;;;;;;1.13;1.02;;;21.10;69.50;;;25.42;36.11;95708.84;6063238;19;20010;-66
2021/11/06 06:35:45;;;;;;;1.10;1.00;;;21.20;69.50;;;25.41;36.44;95710.78;6072660;19;20016;-67
2021/11/06 06:37:46;;;;;;;1.10;1.00;;;21.20;69.50;;;25.41;36.56;95712.72;6061099;19;20011;-67
2021/11/06 06:39:47;;;;;;;1.20;1.10;;;21.10;69.50;;;25.42;36.36;95722.50;6053252;19;20022;-67
2021/11/06 06:41:48;;;;;;;0.95;0.95;;;21.20;69.40;;;25.41;36.57;95721.72;6065928;19;20010;-66
2021/11/06 06:43:49;;;;;;;1.05;1.00;;;21.20;69.40;;;25.42;36.29;95728.75;6030058;19;20006;-67
2021/11/06 06:45:50;;;;;;;1.30;1.20;;;21.20;69.40;;;25.42;36.17;95725.25;6049773;19;20014;-66
2021/11/06 06:47:51;;;;;;;1.30;1.20;;;21.20;69.30;;;25.42;36.34;95726.03;6070362;19;20014;-67
2021/11/06 06:49:51;;;;;;;0.75;0.75;;;21.20;69.30;;;25.43;36.33;95724.09;6071469;19;20192;-67
2021/11/06 06:51:52;;;;;;;1.20;1.10;;;21.20;69.40;;;25.44;36.31;95728.44;6073900;19;20014;-66
2021/11/06 06:53:53;;;;;;;0.93;0.90;;;21.20;69.30;;;25.44;36.02;95722.97;6039716;19;22970;-67
2021/11/06 06:55:54;;;;;;;1.25;1.10;;;21.20;69.20;;;25.44;35.98;95723.78;6048089;19;20026;-67
2021/11/06 06:57:55;;;;;;;1.70;1.00;;;21.20;69.20;;;25.46;36.26;95735.16;6031022;19;20546;-67
2021/11/06 06:59:56;;;;;;;1.33;1.23;;;21.20;69.20;;;25.47;35.98;95733.22;6041541;19;20014;-66
2021/11/06 07:01:57;;;;;;;1.05;0.95;;;21.20;69.10;;;25.48;36.19;95737.56;6036077;19;20002;-67
2021/11/06 07:03:58;;;;;;;1.35;1.10;;;21.20;69.10;;;25.48;36.27;95732.91;6037958;19;20031;-66
2021/11/06 07:05:59;;;;;;;1.88;1.35;;;21.20;69.00;;;25.49;35.89;95736.44;6042846;19;21424;-66
2021/11/06 07:08:00;;;;;;;1.02;1.00;;;21.20;69.10;;;25.50;36.00;95743.50;6050240;19;20108;-67
2021/11/06 07:10:02;;;;;;;1.42;1.33;;;21.20;69.00;;;25.50;36.43;95735.31;6054907;19;20015;-66
2021/11/06 07:12:04;;;;;;;2.95;1.13;;;21.20;69.00;;;25.50;36.43;95738.84;6047055;19;20541;-67
2021/11/06 07:14:05;;;;;;;1.65;1.13;;;21.30;69.10;;;25.51;36.37;95740.44;6027377;19;19999;-67
2021/11/06 07:16:06;;;;;;;1.15;1.05;;;21.30;69.10;;;25.53;35.90;95740.09;6038179;19;20006;-66
2021/11/06 07:18:07;;;;;;;1.15;1.00;;;21.30;69.10;;;25.53;35.79;95748.28;6048287;19;20007;-66
2021/11/06 07:20:09;;;;;;;3.75;1.30;;;21.30;69.00;;;25.52;36.00;95750.22;6066462;19;20014;-66
2021/11/06 07:22:10;;;;;;;1.08;1.08;;;21.30;69.00;;;25.52;36.39;95752.16;6061063;19;20018;-66
2021/11/06 07:24:14;;;;;;;1.40;1.13;;;21.30;69.00;;;25.51;35.99;95748.63;6031710;19;20046;-66
2021/11/06 07:26:15;;;;;;;1.83;1.45;;;21.30;69.00;;;25.52;35.96;95755.69;6028553;19;20039;-66
2021/11/06 07:28:16;;;;;;;1.30;1.20;;;21.30;69.00;;;25.52;35.83;95752.16;6023609;19;20014;-66
2021/11/06 07:30:17;;;;;;;1.15;1.05;;;21.30;69.00;;;25.52;36.17;95746.69;6036755;19;21155;-67
2021/11/06 07:32:18;;;;;;;1.60;1.50;;;21.30;69.00;;;25.53;36.59;95749.09;6032820;19;20236;-67
2021/11/06 07:34:19;;;;;;;1.58;1.48;;;21.30;69.00;;;25.52;36.22;95743.97;6029158;19;20345;-66
2021/11/06 07:36:21;;;;;;;1.40;1.30;;;21.30;69.00;;;25.53;36.36;95740.09;6019057;19;20022;-67
2021/11/06 07:38:22;;;;;;;1.55;1.45;;;21.30;68.90;;;25.53;36.18;95751.03;6005325;19;20007;-67
2021/11/06 07:40:24;;;;;;;1.45;1.35;;;21.30;68.80;;;25.53;36.16;95760.00;6010820;19;20559;-67
2021/11/06 07:42:25;;;;;;;1.48;1.38;;;21.30;68.80;;;25.54;36.43;95758.09;6037499;19;20050;-67
2021/11/06 07:44:26;;;;;;;1.33;1.02;;;21.30;69.00;;;25.54;35.92;95750.69;6046867;19;21173;-66
2021/11/06 07:46:27;;;;;;;1.27;1.17;;;21.30;68.90;;;25.53;35.96;95749.09;6025198;19;20014;-66
2021/11/06 07:48:28;;;;;;;1.42;1.23;;;21.30;69.00;;;25.55;36.32;95759.69;6035453;19;21134;-67
2021/11/06 07:50:30;;;;;;;1.38;1.27;;;21.30;68.90;;;25.55;36.41;95762.41;6044918;19;20054;-66
2021/11/06 07:52:31;;;;;;;1.60;1.50;;;21.30;69.00;;;25.57;36.32;95768.34;6042604;19;20025;-62
2021/11/06 07:54:32;;;;;;;1.20;1.13;;;21.30;68.90;;;25.57;36.43;95762.88;6042167;19;20011;-70
2021/11/06 07:56:35;;;;;;;2.95;1.30;;;21.30;68.90;;;25.57;35.96;95766.41;6034421;19;20018;-73
2021/11/06 07:58:36;;;;;;;1.48;1.38;;;21.30;68.90;;;25.59;35.89;95760.63;6015964;19;20007;-72
2021/11/06 08:00:37;;;;;;;1.13;1.02;;;21.40;69.10;;;25.61;36.35;95763.81;5998728;19;20086;-63
2021/11/06 08:02:41;;;;;;;1.00;1.00;;;21.40;69.00;;;25.63;36.06;95764.31;6017122;19;20031;-64
2021/11/06 08:04:42;;;;;;;1.50;1.40;;;21.40;69.00;;;25.64;35.89;95765.91;6031576;19;20011;-71
2021/11/06 08:06:43;;;;;;;1.67;1.35;;;21.40;69.00;;;25.66;36.23;95769.16;6031137;19;20015;-62
2021/11/06 08:08:44;;;;;;;1.35;1.13;;;21.40;68.90;;;25.67;36.37;95767.22;5992446;19;20082;-64
2021/11/06 08:10:45;;;;;;;2.22;1.73;;;21.40;69.00;;;25.68;35.86;95772.34;5999378;19;20014;-64
2021/11/06 08:12:46;;;;;;;1.65;1.55;;;21.40;69.00;;;25.69;36.08;95763.03;6023979;19;20550;-64
2021/11/06 08:14:47;;;;;;;1.50;1.40;;;21.40;68.60;;;25.70;35.84;95769.28;6033835;19;20107;-64
2021/11/06 08:16:49;;;;;;;1.58;1.48;;;21.40;68.60;;;25.70;36.04;95764.63;6027022;19;20908;-65
2021/11/06 08:18:50;;;;;;;1.48;1.35;;;21.50;68.50;;;25.71;35.97;95766.22;5997241;19;20086;-65
2021/11/06 08:20:51;;;;;;;1.40;1.30;;;21.50;68.30;;;25.71;35.69;95760.75;5984198;19;20105;-65
2021/11/06 08:22:53;;;;;;;1.67;1.40;;;21.50;68.20;;;25.73;36.18;95769.44;5978774;19;20026;-65
2021/11/06 08:24:53;;;;;;;1.77;1.30;;;21.50;68.40;;;25.74;35.90;95771.03;6026434;19;20728;-65
2021/11/06 08:26:54;;;;;;;1.60;1.50;;;21.50;68.30;;;25.75;35.63;95766.38;6032630;19;20094;-64
2021/11/06 08:28:55;;;;;;;3.78;1.35;;;21.50;68.10;;;25.75;35.86;95760.91;5993290;19;20010;-65